Portada
METAR-TAF:

METAR-TAF

Aeropuertos :

Emmen, Suiza

latitud: 47-05-32N, longitud: 8-18-16E, altitud: 426 m

Observación

El informe se hizo hace 16 minutos, a las 02:50 UTC
Viento 2 kt del norte
Temperatura 8°C
Humedad 81%
Presión 1019 hPa
Visibilidad 10 km o más

METAR: LSME 010250Z AUTO 01002KT 9999NDV NCD 08/05 Q1019 RMK

Hora: 05:06 (03:06 UTC)


TAF: falta

Observaciones y pronósticos meteorológicos de más de 4000 aeropuertos (mensajes METAR y TAF).

Los puntos amarillos y rojos representan las estaciones disponibles.

Ponga el ratón en el punto deseado para ver el nombre de la estación.

Haga clic para ver las observaciones y los pronósticos meteorológicos.

Para cambiar el mapa : haga clic en los botones verdes con una cruz de color negro para hacer un zoom, en el botón verde con un guión para alejar o en las flechas verdes para mapas adyacentes.


METAR-TAF: